sensor_id;sensor_type;location;lat;lon;timestamp;temperature;humidity
16243;DHT22;11719;51.052;6.982;2022-11-20T00:01:12;17.80;98.40
16243;DHT22;11719;51.052;6.982;2022-11-20T00:03:43;17.70;91.90
16243;DHT22;11719;51.052;6.982;2022-11-20T00:06:14;17.50;99.00
16243;DHT22;11719;51.052;6.982;2022-11-20T00:08:42;17.50;99.10
16243;DHT22;11719;51.052;6.982;2022-11-20T00:11:19;17.60;98.70
16243;DHT22;11719;51.052;6.982;2022-11-20T00:13:48;17.60;98.90
16243;DHT22;11719;51.052;6.982;2022-11-20T00:16:18;17.70;98.70
16243;DHT22;11719;51.052;6.982;2022-11-20T00:18:46;17.80;98.70
16243;DHT22;11719;51.052;6.982;2022-11-20T00:21:18;17.80;97.50
16243;DHT22;11719;51.052;6.982;2022-11-20T00:23:45;17.70;98.30
16243;DHT22;11719;51.052;6.982;2022-11-20T00:26:13;17.60;97.70
16243;DHT22;11719;51.052;6.982;2022-11-20T00:28:41;17.50;98.80
16243;DHT22;11719;51.052;6.982;2022-11-20T00:31:12;17.50;98.50
16243;DHT22;11719;51.052;6.982;2022-11-20T00:33:40;17.30;97.00
16243;DHT22;11719;51.052;6.982;2022-11-20T00:36:09;17.10;99.20
16243;DHT22;11719;51.052;6.982;2022-11-20T00:38:36;16.90;94.80
16243;DHT22;11719;51.052;6.982;2022-11-20T00:41:05;16.60;96.60
16243;DHT22;11719;51.052;6.982;2022-11-20T00:43:35;16.30;98.80
16243;DHT22;11719;51.052;6.982;2022-11-20T00:46:03;16.30;99.90
16243;DHT22;11719;51.052;6.982;2022-11-20T00:48:30;16.30;99.10
16243;DHT22;11719;51.052;6.982;2022-11-20T00:50:56;16.10;96.30
16243;DHT22;11719;51.052;6.982;2022-11-20T00:53:22;16.00;99.90
16243;DHT22;11719;51.052;6.982;2022-11-20T00:56:28;16.40;99.90
16243;DHT22;11719;51.052;6.982;2022-11-20T00:58:48;16.60;99.90
16243;DHT22;11719;51.052;6.982;2022-11-20T01:01:19;16.80;99.90
16243;DHT22;11719;51.052;6.982;2022-11-20T01:03:50;17.00;98.90
16243;DHT22;11719;51.052;6.982;2022-11-20T01:06:20;17.10;99.60
16243;DHT22;11719;51.052;6.982;2022-11-20T01:08:48;17.00;95.60
16243;DHT22;11719;51.052;6.982;2022-11-20T01:11:20;16.90;99.70
16243;DHT22;11719;51.052;6.982;2022-11-20T01:13:52;16.80;96.60
16243;DHT22;11719;51.052;6.982;2022-11-20T01:16:21;16.60;99.90
16243;DHT22;11719;51.052;6.982;2022-11-20T01:18:50;16.60;96.70
16243;DHT22;11719;51.052;6.982;2022-11-20T01:21:20;16.50;95.80
16243;DHT22;11719;51.052;6.982;2022-11-20T01:23:56;16.20;94.60
16243;DHT22;11719;51.052;6.982;2022-11-20T01:26:26;15.90;97.30
16243;DHT22;11719;51.052;6.982;2022-11-20T01:28:54;15.80;99.30
16243;DHT22;11719;51.052;6.982;2022-11-20T01:31:21;16.10;97.80
16243;DHT22;11719;51.052;6.982;2022-11-20T01:33:57;16.00;98.50
16243;DHT22;11719;51.052;6.982;2022-11-20T01:36:26;15.90;98.20
16243;DHT22;11719;51.052;6.982;2022-11-20T01:38:56;15.80;99.80
16243;DHT22;11719;51.052;6.982;2022-11-20T01:41:24;15.80;98.00
16243;DHT22;11719;51.052;6.982;2022-11-20T01:44:11;15.70;99.90
16243;DHT22;11719;51.052;6.982;2022-11-20T01:46:47;15.60;95.20
16243;DHT22;11719;51.052;6.982;2022-11-20T01:49:30;15.40;97.20
16243;DHT22;11719;51.052;6.982;2022-11-20T01:52:04;15.30;99.90
16243;DHT22;11719;51.052;6.982;2022-11-20T01:54:47;15.30;98.60
16243;DHT22;11719;51.052;6.982;2022-11-20T01:57:18;15.30;98.50
16243;DHT22;11719;51.052;6.982;2022-11-20T01:59:53;15.20;97.70
16243;DHT22;11719;51.052;6.982;2022-11-20T02:02:22;14.90;99.40
16243;DHT22;11719;51.052;6.982;2022-11-20T02:04:49;15.10;99.90
16243;DHT22;11719;51.052;6.982;2022-11-20T02:07:17;15.30;99.60
16243;DHT22;11719;51.052;6.982;2022-11-20T02:09:44;15.30;99.40
16243;DHT22;11719;51.052;6.982;2022-11-20T02:12:09;15.20;98.50
16243;DHT22;11719;51.052;6.982;2022-11-20T02:14:56;15.30;99.90
16243;DHT22;11719;51.052;6.982;2022-11-20T02:17:23;15.40;99.90
16243;DHT22;11719;51.052;6.982;2022-11-20T02:19:50;15.60;97.90
16243;DHT22;11719;51.052;6.982;2022-11-20T02:22:35;15.60;99.90
16243;DHT22;11719;51.052;6.982;2022-11-20T02:25:06;15.70;99.90
16243;DHT22;11719;51.052;6.982;2022-11-20T02:27:32;16.00;99.60
16243;DHT22;11719;51.052;6.982;2022-11-20T02:30:04;16.10;99.90
16243;DHT22;11719;51.052;6.982;2022-11-20T02:32:36;16.50;99.90
16243;DHT22;11719;51.052;6.982;2022-11-20T02:37:57;16.90;99.80
16243;DHT22;11719;51.052;6.982;2022-11-20T02:40:23;17.10;99.40
16243;DHT22;11719;51.052;6.982;2022-11-20T02:42:56;17.30;99.40
16243;DHT22;11719;51.052;6.982;2022-11-20T02:45:23;17.20;96.80
16243;DHT22;11719;51.052;6.982;2022-11-20T02:47:49;17.00;97.50
16243;DHT22;11719;51.052;6.982;2022-11-20T02:50:16;16.80;97.00
16243;DHT22;11719;51.052;6.982;2022-11-20T02:52:42;16.70;98.70
16243;DHT22;11719;51.052;6.982;2022-11-20T02:55:08;16.50;96.40
16243;DHT22;11719;51.052;6.982;2022-11-20T02:57:34;16.40;99.90
16243;DHT22;11719;51.052;6.982;2022-11-20T03:00:00;16.50;99.90
16243;DHT22;11719;51.052;6.982;2022-11-20T03:02:30;16.80;96.40
16243;DHT22;11719;51.052;6.982;2022-11-20T03:04:56;16.70;98.10
16243;DHT22;11719;51.052;6.982;2022-11-20T03:07:22;16.60;98.80
16243;DHT22;11719;51.052;6.982;2022-11-20T03:09:47;16.40;96.00
16243;DHT22;11719;51.052;6.982;2022-11-20T03:12:13;16.10;96.70
16243;DHT22;11719;51.052;6.982;2022-11-20T03:14:39;16.00;94.50
16243;DHT22;11719;51.052;6.982;2022-11-20T03:17:05;15.60;96.00
16243;DHT22;11719;51.052;6.982;2022-11-20T03:19:31;15.40;93.40
16243;DHT22;11719;51.052;6.982;2022-11-20T03:21:57;15.00;97.50
16243;DHT22;11719;51.052;6.982;2022-11-20T03:24:23;14.90;99.90
16243;DHT22;11719;51.052;6.982;2022-11-20T03:26:49;14.60;94.00
16243;DHT22;11719;51.052;6.982;2022-11-20T03:29:14;14.30;96.40
16243;DHT22;11719;51.052;6.982;2022-11-20T03:31:41;13.90;92.60
16243;DHT22;11719;51.052;6.982;2022-11-20T03:34:08;13.50;99.90
16243;DHT22;11719;51.052;6.982;2022-11-20T03:36:35;13.60;99.90
16243;DHT22;11719;51.052;6.982;2022-11-20T03:39:03;13.70;97.60
16243;DHT22;11719;51.052;6.982;2022-11-20T03:41:30;13.80;99.90
16243;DHT22;11719;51.052;6.982;2022-11-20T03:43:58;13.90;99.90
16243;DHT22;11719;51.052;6.982;2022-11-20T03:46:26;13.90;99.10
16243;DHT22;11719;51.052;6.982;2022-11-20T03:48:53;13.70;97.50
16243;DHT22;11719;51.052;6.982;2022-11-20T03:51:26;13.70;99.90
16243;DHT22;11719;51.052;6.982;2022-11-20T03:53:56;13.80;99.90
16243;DHT22;11719;51.052;6.982;2022-11-20T03:56:25;13.90;99.90
16243;DHT22;11719;51.052;6.982;2022-11-20T03:58:52;14.00;99.80
16243;DHT22;11719;51.052;6.982;2022-11-20T04:01:20;13.80;98.80
16243;DHT22;11719;51.052;6.982;2022-11-20T04:03:48;13.90;98.90
16243;DHT22;11719;51.052;6.982;2022-11-20T04:06:17;13.70;96.90
16243;DHT22;11719;51.052;6.982;2022-11-20T04:08:47;13.90;99.90
16243;DHT22;11719;51.052;6.982;2022-11-20T04:11:18;13.80;99.80
16243;DHT22;11719;51.052;6.982;2022-11-20T04:13:53;13.90;99.90
16243;DHT22;11719;51.052;6.982;2022-11-20T04:16:22;14.00;99.90
16243;DHT22;11719;51.052;6.982;2022-11-20T04:18:57;14.20;99.90
16243;DHT22;11719;51.052;6.982;2022-11-20T04:21:25;14.30;99.90
16243;DHT22;11719;51.052;6.982;2022-11-20T04:23:52;14.40;99.90
16243;DHT22;11719;51.052;6.982;2022-11-20T04:26:18;14.60;99.90
16243;DHT22;11719;51.052;6.982;2022-11-20T04:28:45;14.60;99.90
16243;DHT22;11719;51.052;6.982;2022-11-20T04:31:26;14.80;98.70
16243;DHT22;11719;51.052;6.982;2022-11-20T04:33:52;14.60;94.00
16243;DHT22;11719;51.052;6.982;2022-11-20T04:36:23;14.20;95.90
16243;DHT22;11719;51.052;6.982;2022-11-20T04:38:55;14.20;97.20
16243;DHT22;11719;51.052;6.982;2022-11-20T04:41:26;14.10;99.30
16243;DHT22;11719;51.052;6.982;2022-11-20T04:43:59;14.00;99.90
16243;DHT22;11719;51.052;6.982;2022-11-20T04:46:28;14.10;99.90
16243;DHT22;11719;51.052;6.982;2022-11-20T04:48:59;14.40;99.90
16243;DHT22;11719;51.052;6.982;2022-11-20T04:51:25;14.50;99.10
16243;DHT22;11719;51.052;6.982;2022-11-20T04:53:52;14.40;98.10
16243;DHT22;11719;51.052;6.982;2022-11-20T04:56:17;14.30;99.50
16243;DHT22;11719;51.052;6.982;2022-11-20T04:58:43;14.30;98.30
16243;DHT22;11719;51.052;6.982;2022-11-20T05:01:17;14.10;98.50
16243;DHT22;11719;51.052;6.982;2022-11-20T05:03:46;14.00;97.80
16243;DHT22;11719;51.052;6.982;2022-11-20T05:06:14;13.90;98.20
16243;DHT22;11719;51.052;6.982;2022-11-20T05:08:42;13.80;98.70
16243;DHT22;11719;51.052;6.982;2022-11-20T05:11:11;13.70;98.20
16243;DHT22;11719;51.052;6.982;2022-11-20T05:13:41;13.60;99.20
16243;DHT22;11719;51.052;6.982;2022-11-20T05:16:12;13.70;98.90
16243;DHT22;11719;51.052;6.982;2022-11-20T05:18:39;13.60;99.00
16243;DHT22;11719;51.052;6.982;2022-11-20T05:21:06;13.60;99.40
16243;DHT22;11719;51.052;6.982;2022-11-20T05:23:33;13.60;99.90
16243;DHT22;11719;51.052;6.982;2022-11-20T05:25:59;13.60;98.90
16243;DHT22;11719;51.052;6.982;2022-11-20T05:28:27;13.50;99.90
16243;DHT22;11719;51.052;6.982;2022-11-20T05:30:53;13.50;98.90
16243;DHT22;11719;51.052;6.982;2022-11-20T05:33:19;13.40;99.50
16243;DHT22;11719;51.052;6.982;2022-11-20T05:35:45;13.50;99.90
16243;DHT22;11719;51.052;6.982;2022-11-20T05:38:11;13.70;99.90
16243;DHT22;11719;51.052;6.982;2022-11-20T05:40:37;13.70;99.90
16243;DHT22;11719;51.052;6.982;2022-11-20T05:43:03;13.70;99.40
16243;DHT22;11719;51.052;6.982;2022-11-20T05:45:29;13.70;98.40
16243;DHT22;11719;51.052;6.982;2022-11-20T05:47:58;13.50;98.50
16243;DHT22;11719;51.052;6.982;2022-11-20T05:50:26;13.50;98.30
16243;DHT22;11719;51.052;6.982;2022-11-20T05:52:52;13.30;97.60
16243;DHT22;11719;51.052;6.982;2022-11-20T05:55:18;13.10;97.60
16243;DHT22;11719;51.052;6.982;2022-11-20T05:57:44;13.10;99.40
16243;DHT22;11719;51.052;6.982;2022-11-20T06:00:10;13.20;98.60
16243;DHT22;11719;51.052;6.982;2022-11-20T06:02:36;13.10;99.00
16243;DHT22;11719;51.052;6.982;2022-11-20T06:05:02;13.10;99.90
16243;DHT22;11719;51.052;6.982;2022-11-20T06:07:28;13.30;99.90
16243;DHT22;11719;51.052;6.982;2022-11-20T06:09:54;13.40;99.90
16243;DHT22;11719;51.052;6.982;2022-11-20T06:12:19;13.60;99.90
16243;DHT22;11719;51.052;6.982;2022-11-20T06:14:45;13.70;99.90
16243;DHT22;11719;51.052;6.982;2022-11-20T06:17:11;13.80;99.90
16243;DHT22;11719;51.052;6.982;2022-11-20T06:19:36;14.00;99.90
16243;DHT22;11719;51.052;6.982;2022-11-20T06:22:02;14.00;98.90
16243;DHT22;11719;51.052;6.982;2022-11-20T06:24:28;13.90;99.90
16243;DHT22;11719;51.052;6.982;2022-11-20T06:26:54;13.90;99.90
16243;DHT22;11719;51.052;6.982;2022-11-20T06:29:19;14.00;99.90
16243;DHT22;11719;51.052;6.982;2022-11-20T06:31:45;14.00;99.90
16243;DHT22;11719;51.052;6.982;2022-11-20T06:34:11;14.00;99.90
16243;DHT22;11719;51.052;6.982;2022-11-20T06:36:37;14.20;99.90
16243;DHT22;11719;51.052;6.982;2022-11-20T06:39:02;14.30;99.90
16243;DHT22;11719;51.052;6.982;2022-11-20T06:41:28;14.40;99.90
16243;DHT22;11719;51.052;6.982;2022-11-20T06:43:54;14.40;99.90
16243;DHT22;11719;51.052;6.982;2022-11-20T06:46:20;14.40;99.90
16243;DHT22;11719;51.052;6.982;2022-11-20T06:48:49;14.20;98.30
16243;DHT22;11719;51.052;6.982;2022-11-20T06:51:16;13.90;99.40
16243;DHT22;11719;51.052;6.982;2022-11-20T06:53:42;13.90;99.90
16243;DHT22;11719;51.052;6.982;2022-11-20T06:56:08;13.90;99.90
16243;DHT22;11719;51.052;6.982;2022-11-20T06:58:35;13.90;98.80
16243;DHT22;11719;51.052;6.982;2022-11-20T07:01:06;13.60;98.50
16243;DHT22;11719;51.052;6.982;2022-11-20T07:03:34;13.30;98.40
16243;DHT22;11719;51.052;6.982;2022-11-20T07:06:01;13.30;99.90
16243;DHT22;11719;51.052;6.982;2022-11-20T07:08:28;13.40;99.90
16243;DHT22;11719;51.052;6.982;2022-11-20T07:10:58;13.80;99.90
16243;DHT22;11719;51.052;6.982;2022-11-20T07:13:25;13.80;98.20
16243;DHT22;11719;51.052;6.982;2022-11-20T07:15:52;13.40;97.50
16243;DHT22;11719;51.052;6.982;2022-11-20T07:18:17;13.10;98.40
16243;DHT22;11719;51.052;6.982;2022-11-20T07:20:43;12.80;99.90
16243;DHT22;11719;51.052;6.982;2022-11-20T07:23:09;12.90;99.90
16243;DHT22;11719;51.052;6.982;2022-11-20T07:25:35;13.10;99.90
16243;DHT22;11719;51.052;6.982;2022-11-20T07:28:01;13.10;99.90
16243;DHT22;11719;51.052;6.982;2022-11-20T07:30:28;13.10;99.90
16243;DHT22;11719;51.052;6.982;2022-11-20T07:32:55;13.20;99.90
16243;DHT22;11719;51.052;6.982;2022-11-20T07:35:22;13.20;99.90
16243;DHT22;11719;51.052;6.982;2022-11-20T07:37:48;13.10;99.90
16243;DHT22;11719;51.052;6.982;2022-11-20T07:40:15;12.50;96.20
16243;DHT22;11719;51.052;6.982;2022-11-20T07:42:48;11.70;97.70
16243;DHT22;11719;51.052;6.982;2022-11-20T07:45:15;11.30;98.70
16243;DHT22;11719;51.052;6.982;2022-11-20T07:47:41;11.10;99.10
16243;DHT22;11719;51.052;6.982;2022-11-20T07:50:07;10.80;99.40
16243;DHT22;11719;51.052;6.982;2022-11-20T07:52:33;11.10;99.90
16243;DHT22;11719;51.052;6.982;2022-11-20T07:54:59;11.30;99.90
16243;DHT22;11719;51.052;6.982;2022-11-20T07:57:25;11.50;99.90
16243;DHT22;11719;51.052;6.982;2022-11-20T07:59:50;12.00;99.90
16243;DHT22;11719;51.052;6.982;2022-11-20T08:02:16;12.60;99.90
16243;DHT22;11719;51.052;6.982;2022-11-20T08:04:42;12.90;99.90
16243;DHT22;11719;51.052;6.982;2022-11-20T08:07:07;13.10;99.90
16243;DHT22;11719;51.052;6.982;2022-11-20T08:09:33;13.20;99.90
16243;DHT22;11719;51.052;6.982;2022-11-20T08:11:59;13.40;99.90
16243;DHT22;11719;51.052;6.982;2022-11-20T08:14:43;13.40;99.90
16243;DHT22;11719;51.052;6.982;2022-11-20T08:17:09;13.90;99.90
16243;DHT22;11719;51.052;6.982;2022-11-20T08:19:35;14.20;99.90
16243;DHT22;11719;51.052;6.982;2022-11-20T08:22:01;14.50;99.90
16243;DHT22;11719;51.052;6.982;2022-11-20T08:24:27;14.70;99.90
16243;DHT22;11719;51.052;6.982;2022-11-20T08:26:52;14.70;99.90
16243;DHT22;11719;51.052;6.982;2022-11-20T08:29:18;14.60;99.90
16243;DHT22;11719;51.052;6.982;2022-11-20T08:31:44;14.50;99.90
16243;DHT22;11719;51.052;6.982;2022-11-20T08:34:10;14.40;98.10
16243;DHT22;11719;51.052;6.982;2022-11-20T08:36:36;14.10;98.70
16243;DHT22;11719;51.052;6.982;2022-11-20T08:39:02;14.20;99.90
16243;DHT22;11719;51.052;6.982;2022-11-20T08:41:29;14.40;99.90
16243;DHT22;11719;51.052;6.982;2022-11-20T08:44:02;14.40;99.90
16243;DHT22;11719;51.052;6.982;2022-11-20T08:46:35;14.50;99.90
16243;DHT22;11719;51.052;6.982;2022-11-20T08:49:07;14.50;98.80
16243;DHT22;11719;51.052;6.982;2022-11-20T08:51:35;14.30;98.10
16243;DHT22;11719;51.052;6.982;2022-11-20T08:54:01;14.10;99.50
16243;DHT22;11719;51.052;6.982;2022-11-20T08:56:27;14.30;99.90
16243;DHT22;11719;51.052;6.982;2022-11-20T08:58:53;14.40;99.90
16243;DHT22;11719;51.052;6.982;2022-11-20T09:01:19;14.70;99.90
16243;DHT22;11719;51.052;6.982;2022-11-20T09:03:46;14.80;99.90
16243;DHT22;11719;51.052;6.982;2022-11-20T09:06:12;14.70;97.10
16243;DHT22;11719;51.052;6.982;2022-11-20T09:08:38;14.50;96.90
16243;DHT22;11719;51.052;6.982;2022-11-20T09:11:05;14.20;94.90
16243;DHT22;11719;51.052;6.982;2022-11-20T09:13:32;13.50;95.60
16243;DHT22;11719;51.052;6.982;2022-11-20T09:16:00;12.90;95.80
16243;DHT22;11719;51.052;6.982;2022-11-20T09:18:34;12.40;96.70
16243;DHT22;11719;51.052;6.982;2022-11-20T09:21:09;12.30;97.40
16243;DHT22;11719;51.052;6.982;2022-11-20T09:23:37;12.10;99.90
16243;DHT22;11719;51.052;6.982;2022-11-20T09:26:04;12.50;99.90
16243;DHT22;11719;51.052;6.982;2022-11-20T09:28:32;12.50;97.90
16243;DHT22;11719;51.052;6.982;2022-11-20T09:30:58;12.00;98.50
16243;DHT22;11719;51.052;6.982;2022-11-20T09:33:24;11.90;99.60
16243;DHT22;11719;51.052;6.982;2022-11-20T09:35:50;12.00;99.90
16243;DHT22;11719;51.052;6.982;2022-11-20T09:38:16;12.30;99.90
16243;DHT22;11719;51.052;6.982;2022-11-20T09:41:42;12.20;99.90
16243;DHT22;11719;51.052;6.982;2022-11-20T09:44:51;12.50;99.90
16243;DHT22;11719;51.052;6.982;2022-11-20T09:50:45;13.70;99.90
16243;DHT22;11719;51.052;6.982;2022-11-20T09:53:35;14.40;99.90
16243;DHT22;11719;51.052;6.982;2022-11-20T09:56:19;15.10;99.90
16243;DHT22;11719;51.052;6.982;2022-11-20T09:58:48;15.70;99.90
16243;DHT22;11719;51.052;6.982;2022-11-20T10:01:18;16.00;99.90
16243;DHT22;11719;51.052;6.982;2022-11-20T10:06:31;16.50;96.50
16243;DHT22;11719;51.052;6.982;2022-11-20T10:11:40;16.60;96.80
16243;DHT22;11719;51.052;6.982;2022-11-20T10:29:01;15.10;99.40
16243;DHT22;11719;51.052;6.982;2022-11-20T10:31:38;14.80;94.80
16243;DHT22;11719;51.052;6.982;2022-11-20T10:37:08;15.10;99.90
16243;DHT22;11719;51.052;6.982;2022-11-20T10:42:45;15.60;99.90
16243;DHT22;11719;51.052;6.982;2022-11-20T10:45:28;15.40;95.00
16243;DHT22;11719;51.052;6.982;2022-11-20T10:48:12;14.70;94.50
16243;DHT22;11719;51.052;6.982;2022-11-20T10:56:53;15.20;99.90
16243;DHT22;11719;51.052;6.982;2022-11-20T11:02:19;16.10;99.90
16243;DHT22;11719;51.052;6.982;2022-11-20T11:04:49;16.30;99.90
16243;DHT22;11719;51.052;6.982;2022-11-20T11:07:35;16.40;99.20
16243;DHT22;11719;51.052;6.982;2022-11-20T11:10:35;16.40;98.00
16243;DHT22;11719;51.052;6.982;2022-11-20T11:13:02;16.40;99.90
16243;DHT22;11719;51.052;6.982;2022-11-20T11:15:39;16.60;99.90
16243;DHT22;11719;51.052;6.982;2022-11-20T11:18:10;16.70;94.20
16243;DHT22;11719;51.052;6.982;2022-11-20T11:20:37;16.80;99.80
16243;DHT22;11719;51.052;6.982;2022-11-20T11:23:03;16.90;99.20
16243;DHT22;11719;51.052;6.982;2022-11-20T11:25:36;16.90;99.40
16243;DHT22;11719;51.052;6.982;2022-11-20T11:28:17;16.60;95.40
16243;DHT22;11719;51.052;6.982;2022-11-20T11:30:45;16.50;99.50
16243;DHT22;11719;51.052;6.982;2022-11-20T11:33:26;16.20;97.50
16243;DHT22;11719;51.052;6.982;2022-11-20T11:35:58;16.00;99.10
16243;DHT22;11719;51.052;6.982;2022-11-20T11:38:37;16.00;99.90
16243;DHT22;11719;51.052;6.982;2022-11-20T11:41:06;16.40;99.90
16243;DHT22;11719;51.052;6.982;2022-11-20T11:43:36;16.60;98.00
16243;DHT22;11719;51.052;6.982;2022-11-20T11:46:29;16.40;96.40
16243;DHT22;11719;51.052;6.982;2022-11-20T11:54:55;16.70;94.40
16243;DHT22;11719;51.052;6.982;2022-11-20T12:00:00;15.40;99.90
16243;DHT22;11719;51.052;6.982;2022-11-20T12:03:08;15.20;96.00
16243;DHT22;11719;51.052;6.982;2022-11-20T12:05:44;15.40;99.90
16243;DHT22;11719;51.052;6.982;2022-11-20T12:16:14;16.30;94.70
16243;DHT22;11719;51.052;6.982;2022-11-20T12:18:44;16.50;99.00
16243;DHT22;11719;51.052;6.982;2022-11-20T12:43:26;16.10;97.20
16243;DHT22;11719;51.052;6.982;2022-11-20T12:47:05;16.50;99.40
16243;DHT22;11719;51.052;6.982;2022-11-20T12:52:22;16.60;95.40
16243;DHT22;11719;51.052;6.982;2022-11-20T12:55:21;16.30;95.70
16243;DHT22;11719;51.052;6.982;2022-11-20T12:58:00;16.20;99.40
16243;DHT22;11719;51.052;6.982;2022-11-20T13:01:00;15.40;99.90
16243;DHT22;11719;51.052;6.982;2022-11-20T13:04:34;15.80;95.00
16243;DHT22;11719;51.052;6.982;2022-11-20T13:07:13;16.00;98.30
16243;DHT22;11719;51.052;6.982;2022-11-20T13:09:49;16.30;99.80
16243;DHT22;11719;51.052;6.982;2022-11-20T13:17:41;17.20;98.40
16243;DHT22;11719;51.052;6.982;2022-11-20T13:20:16;17.40;98.10
16243;DHT22;11719;51.052;6.982;2022-11-20T13:22:44;17.50;97.70
16243;DHT22;11719;51.052;6.982;2022-11-20T13:27:57;17.60;94.00
16243;DHT22;11719;51.052;6.982;2022-11-20T13:30:28;17.50;95.30
16243;DHT22;11719;51.052;6.982;2022-11-20T13:33:06;17.30;92.50
16243;DHT22;11719;51.052;6.982;2022-11-20T13:36:05;17.30;96.80
16243;DHT22;11719;51.052;6.982;2022-11-20T13:38:50;17.20;97.70
16243;DHT22;11719;51.052;6.982;2022-11-20T13:41:35;17.40;97.60
16243;DHT22;11719;51.052;6.982;2022-11-20T13:46:48;17.50;94.80
16243;DHT22;11719;51.052;6.982;2022-11-20T13:49:29;17.40;96.10
16243;DHT22;11719;51.052;6.982;2022-11-20T14:00:28;17.80;96.60
16243;DHT22;11719;51.052;6.982;2022-11-20T14:03:09;17.80;93.30
16243;DHT22;11719;51.052;6.982;2022-11-20T14:05:55;17.90;96.60
16243;DHT22;11719;51.052;6.982;2022-11-20T14:08:44;17.70;96.70
16243;DHT22;11719;51.052;6.982;2022-11-20T14:16:24;17.40;94.60
16243;DHT22;11719;51.052;6.982;2022-11-20T14:18:52;17.30;97.30
16243;DHT22;11719;51.052;6.982;2022-11-20T14:21:26;17.50;97.20
16243;DHT22;11719;51.052;6.982;2022-11-20T14:24:03;17.70;96.90
16243;DHT22;11719;51.052;6.982;2022-11-20T14:26:32;17.70;96.40
16243;DHT22;11719;51.052;6.982;2022-11-20T14:28:59;17.80;93.60
16243;DHT22;11719;51.052;6.982;2022-11-20T14:31:26;17.80;96.60
16243;DHT22;11719;51.052;6.982;2022-11-20T14:33:54;17.90;96.50
16243;DHT22;11719;51.052;6.982;2022-11-20T14:36:23;17.90;96.50
16243;DHT22;11719;51.052;6.982;2022-11-20T14:38:51;17.80;96.00
16243;DHT22;11719;51.052;6.982;2022-11-20T14:41:22;17.80;96.40
16243;DHT22;11719;51.052;6.982;2022-11-20T14:43:56;17.80;96.40
16243;DHT22;11719;51.052;6.982;2022-11-20T14:46:23;17.90;96.30
16243;DHT22;11719;51.052;6.982;2022-11-20T14:48:54;17.90;95.80
16243;DHT22;11719;51.052;6.982;2022-11-20T14:51:37;17.80;95.50
16243;DHT22;11719;51.052;6.982;2022-11-20T14:54:20;17.70;96.00
16243;DHT22;11719;51.052;6.982;2022-11-20T14:56:56;17.40;95.60
16243;DHT22;11719;51.052;6.982;2022-11-20T14:59:24;17.20;96.10
16243;DHT22;11719;51.052;6.982;2022-11-20T15:02:03;17.20;97.50
16243;DHT22;11719;51.052;6.982;2022-11-20T15:04:30;17.30;97.30
16243;DHT22;11719;51.052;6.982;2022-11-20T15:06:58;17.40;96.80
16243;DHT22;11719;51.052;6.982;2022-11-20T15:09:24;17.50;96.70
16243;DHT22;11719;51.052;6.982;2022-11-20T15:11:57;17.50;95.20
16243;DHT22;11719;51.052;6.982;2022-11-20T15:14:26;17.40;95.30
16243;DHT22;11719;51.052;6.982;2022-11-20T15:16:53;17.30;93.00
16243;DHT22;11719;51.052;6.982;2022-11-20T15:19:22;17.20;96.00
16243;DHT22;11719;51.052;6.982;2022-11-20T15:21:51;17.30;97.10
16243;DHT22;11719;51.052;6.982;2022-11-20T15:24:18;17.30;93.30
16243;DHT22;11719;51.052;6.982;2022-11-20T15:26:44;17.20;96.60
16243;DHT22;11719;51.052;6.982;2022-11-20T15:29:15;17.10;95.80
16243;DHT22;11719;51.052;6.982;2022-11-20T15:31:45;17.00;98.00
16243;DHT22;11719;51.052;6.982;2022-11-20T15:34:11;17.00;94.80
16243;DHT22;11719;51.052;6.982;2022-11-20T15:36:39;16.70;97.60
16243;DHT22;11719;51.052;6.982;2022-11-20T15:39:06;16.70;98.00
16243;DHT22;11719;51.052;6.982;2022-11-20T15:41:36;16.60;97.00
16243;DHT22;11719;51.052;6.982;2022-11-20T15:44:04;16.60;98.50
16243;DHT22;11719;51.052;6.982;2022-11-20T15:46:36;16.70;97.00
16243;DHT22;11719;51.052;6.982;2022-11-20T15:49:06;16.50;98.00
16243;DHT22;11719;51.052;6.982;2022-11-20T15:51:38;16.50;99.20
16243;DHT22;11719;51.052;6.982;2022-11-20T15:54:17;16.70;98.50
16243;DHT22;11719;51.052;6.982;2022-11-20T15:56:50;16.80;96.80
16243;DHT22;11719;51.052;6.982;2022-11-20T15:59:19;16.90;98.20
16243;DHT22;11719;51.052;6.982;2022-11-20T16:01:45;17.00;98.40
16243;DHT22;11719;51.052;6.982;2022-11-20T16:04:12;17.00;97.40
16243;DHT22;11719;51.052;6.982;2022-11-20T16:06:39;16.90;98.60
16243;DHT22;11719;51.052;6.982;2022-11-20T16:09:06;16.90;98.30
16243;DHT22;11719;51.052;6.982;2022-11-20T16:11:32;17.00;96.50
16243;DHT22;11719;51.052;6.982;2022-11-20T16:13:59;16.90;98.30
16243;DHT22;11719;51.052;6.982;2022-11-20T16:16:43;17.00;98.40
16243;DHT22;11719;51.052;6.982;2022-11-20T16:19:11;17.20;98.00
16243;DHT22;11719;51.052;6.982;2022-11-20T16:21:41;17.40;97.80
16243;DHT22;11719;51.052;6.982;2022-11-20T16:24:11;17.40;97.20
16243;DHT22;11719;51.052;6.982;2022-11-20T16:26:38;17.40;97.30
16243;DHT22;11719;51.052;6.982;2022-11-20T16:29:05;17.40;97.20
16243;DHT22;11719;51.052;6.982;2022-11-20T16:31:32;17.30;96.40
16243;DHT22;11719;51.052;6.982;2022-11-20T16:34:00;17.20;96.70
16243;DHT22;11719;51.052;6.982;2022-11-20T16:36:28;17.20;98.00
16243;DHT22;11719;51.052;6.982;2022-11-20T16:38:56;17.30;97.80
16243;DHT22;11719;51.052;6.982;2022-11-20T16:41:32;17.40;97.30
16243;DHT22;11719;51.052;6.982;2022-11-20T16:44:00;17.30;96.70
16243;DHT22;11719;51.052;6.982;2022-11-20T16:46:29;17.20;97.40
16243;DHT22;11719;51.052;6.982;2022-11-20T16:48:57;17.30;98.00
16243;DHT22;11719;51.052;6.982;2022-11-20T16:51:28;17.40;97.70
16243;DHT22;11719;51.052;6.982;2022-11-20T16:53:56;17.40;97.70
16243;DHT22;11719;51.052;6.982;2022-11-20T16:56:26;17.40;97.20
16243;DHT22;11719;51.052;6.982;2022-11-20T16:58:54;17.50;97.50
16243;DHT22;11719;51.052;6.982;2022-11-20T17:01:23;17.60;97.40
16243;DHT22;11719;51.052;6.982;2022-11-20T17:03:55;17.70;96.80
16243;DHT22;11719;51.052;6.982;2022-11-20T17:06:41;17.70;97.20
16243;DHT22;11719;51.052;6.982;2022-11-20T17:09:09;17.70;97.40
16243;DHT22;11719;51.052;6.982;2022-11-20T17:11:36;17.70;97.30
16243;DHT22;11719;51.052;6.982;2022-11-20T17:14:02;17.60;97.20
16243;DHT22;11719;51.052;6.982;2022-11-20T17:16:29;17.50;97.20
16243;DHT22;11719;51.052;6.982;2022-11-20T17:18:57;17.30;98.00
16243;DHT22;11719;51.052;6.982;2022-11-20T17:21:23;17.40;98.10
16243;DHT22;11719;51.052;6.982;2022-11-20T17:23:49;17.40;97.90
16243;DHT22;11719;51.052;6.982;2022-11-20T17:26:20;17.60;97.70
16243;DHT22;11719;51.052;6.982;2022-11-20T17:31:29;17.90;97.10
16243;DHT22;11719;51.052;6.982;2022-11-20T17:33:56;17.90;97.00
16243;DHT22;11719;51.052;6.982;2022-11-20T17:36:25;17.90;96.90
16243;DHT22;11719;51.052;6.982;2022-11-20T17:38:51;17.90;97.00
16243;DHT22;11719;51.052;6.982;2022-11-20T17:41:22;17.80;96.80